Terminal Aerodrome Forecast
Issued by NWS Milwaukee/Sullivan, WI

Home | Current Version | Previous Version | Text Only | Print | Product List | Glossary On
Versions: 1 2 3 4 5 6 7 8 9 10 11 12 13 14 15 16 17 18 19 20 21 22 23 24 25 26 27 28 29 30 31 32 33
000
FTUS43 KMKX 241450 AAB
TAFMKE
TAF AMD
KMKE 241450Z 2415/2518 30013G20KT P6SM FEW035
     FM241700 28013G21KT P6SM SCT060
     FM250100 27010KT P6SM VCTS SCT070CB BKN250
     FM250300 27007KT P6SM SCT100
     FM251600 28011KT P6SM SCT110=

USA.gov is the U.S. government's official web portal to all federal, state and local government web resources and services.